createdAt,value
2023-09-15T00:00:37.832Z,99.75
2023-09-15T00:03:12.477Z,99.85
2023-09-15T00:05:42.698Z,99.66
2023-09-15T00:08:13.869Z,99.53
2023-09-15T00:10:43.855Z,99.66
2023-09-15T00:13:15.384Z,99.49
2023-09-15T00:15:44.126Z,99.75
2023-09-15T00:18:14.421Z,99.67
2023-09-15T00:20:43.098Z,99.57
2023-09-15T00:23:12.770Z,99.54
2023-09-15T00:25:49.082Z,99.68
2023-09-15T00:28:18.112Z,99.81
2023-09-15T00:30:47.044Z,99.85
2023-09-15T00:33:17.396Z,99.63
2023-09-15T00:35:48.803Z,99.61
2023-09-15T00:38:18.279Z,99.85
2023-09-15T00:40:48.425Z,99.39
2023-09-15T00:43:17.649Z,99.50
2023-09-15T00:45:47.117Z,99.57
2023-09-15T00:48:19.806Z,99.68
2023-09-15T00:50:48.584Z,99.31
2023-09-15T00:53:21.013Z,99.33
2023-09-15T00:55:53.838Z,99.42
2023-09-15T00:58:22.812Z,99.42
2023-09-15T01:00:55.203Z,99.64
2023-09-15T01:03:26.937Z,99.94
2023-09-15T01:05:56.800Z,99.73
2023-09-15T01:08:25.785Z,99.66
2023-09-15T01:10:56.156Z,99.78
2023-09-15T01:13:28.009Z,99.59
2023-09-15T01:15:58.841Z,99.42
2023-09-15T01:18:40.932Z,99.99
2023-09-15T01:21:34.002Z,99.89
2023-09-15T01:24:39.455Z,99.99
2023-09-15T01:27:32.124Z,99.85
2023-09-15T01:30:18.179Z,99.56
2023-09-15T01:32:48.880Z,99.62
2023-09-15T01:35:17.932Z,99.65
2023-09-15T01:37:47.396Z,99.52
2023-09-15T01:40:15.966Z,99.41
2023-09-15T01:42:45.900Z,99.53
2023-09-15T01:45:19.930Z,99.59
2023-09-15T01:47:51.704Z,99.68
2023-09-15T01:50:21.742Z,99.74
2023-09-15T01:52:51.253Z,99.71
2023-09-15T01:55:20.833Z,99.72
2023-09-15T01:57:50.212Z,99.69
2023-09-15T02:00:20.726Z,99.68
2023-09-15T02:02:49.483Z,99.64
2023-09-15T02:05:25.754Z,99.94
2023-09-15T02:07:55.996Z,99.92
2023-09-15T02:10:24.285Z,99.99
2023-09-15T02:12:53.010Z,99.99
2023-09-15T02:15:23.926Z,99.99
2023-09-15T02:17:54.469Z,99.99
2023-09-15T02:20:23.919Z,99.99
2023-09-15T02:22:52.957Z,99.99
2023-09-15T02:25:21.558Z,99.99
2023-09-15T02:27:50.497Z,99.99
2023-09-15T02:30:19.177Z,99.99
2023-09-15T02:32:49.588Z,99.99
2023-09-15T02:35:18.979Z,99.99
2023-09-15T02:37:47.485Z,99.99
2023-09-15T02:40:16.618Z,99.99
2023-09-15T02:42:45.357Z,99.99
2023-09-15T02:45:14.044Z,99.99
2023-09-15T02:47:43.066Z,99.99
2023-09-15T02:50:13.078Z,99.99
2023-09-15T02:52:41.775Z,99.99
2023-09-15T02:55:11.202Z,99.99
2023-09-15T02:57:39.758Z,99.99
2023-09-15T03:00:15.257Z,99.99
2023-09-15T03:02:45.779Z,99.99
2023-09-15T03:05:16.705Z,99.99
2023-09-15T03:07:44.973Z,99.99
2023-09-15T03:10:13.902Z,99.99
2023-09-15T03:12:43.528Z,99.99
2023-09-15T03:15:14.293Z,99.99
2023-09-15T03:17:45.957Z,99.99
2023-09-15T03:20:17.514Z,99.99
2023-09-15T03:22:46.374Z,99.99
2023-09-15T03:25:20.406Z,99.99
2023-09-15T03:27:49.157Z,99.99
2023-09-15T03:30:18.329Z,99.99
2023-09-15T03:32:52.395Z,99.99
2023-09-15T03:35:23.038Z,99.99
2023-09-15T03:37:51.627Z,99.99
2023-09-15T03:40:23.576Z,99.99
2023-09-15T03:42:53.512Z,99.99
2023-09-15T03:45:22.838Z,99.99
2023-09-15T03:47:51.470Z,99.99
2023-09-15T03:50:22.936Z,99.99
2023-09-15T03:52:53.293Z,99.99
2023-09-15T03:55:23.117Z,99.99
2023-09-15T03:57:52.509Z,99.99
2023-09-15T04:00:23.068Z,99.99
2023-09-15T04:02:51.763Z,99.99
2023-09-15T04:05:20.159Z,99.99
2023-09-15T04:07:48.605Z,99.99
2023-09-15T04:10:18.726Z,99.99
2023-09-15T04:12:47.680Z,99.99
2023-09-15T04:15:16.935Z,99.99
2023-09-15T04:17:45.430Z,99.99
2023-09-15T04:20:15.118Z,99.99
2023-09-15T04:22:44.492Z,99.99
2023-09-15T04:25:16.292Z,99.99
2023-09-15T04:27:49.133Z,99.99
2023-09-15T04:30:18.372Z,99.99
2023-09-15T04:32:51.889Z,99.99
2023-09-15T04:35:20.583Z,99.99
2023-09-15T04:37:50.732Z,99.99
2023-09-15T04:40:20.687Z,99.99
2023-09-15T04:42:50.681Z,99.99
2023-09-15T04:45:20.410Z,99.99
2023-09-15T04:47:54.600Z,99.99
2023-09-15T04:50:23.349Z,99.99
2023-09-15T04:52:54.085Z,99.99
2023-09-15T04:55:26.492Z,99.99
2023-09-15T04:57:57.313Z,99.97
2023-09-15T05:00:30.144Z,99.99
2023-09-15T05:03:00.403Z,99.94
2023-09-15T05:05:30.931Z,99.70
2023-09-15T05:07:59.643Z,99.73
2023-09-15T05:10:28.502Z,99.45
2023-09-15T05:13:00.269Z,99.53
2023-09-15T05:15:28.743Z,99.54
2023-09-15T05:17:57.321Z,99.54
2023-09-15T05:20:28.678Z,99.68
2023-09-15T05:22:57.230Z,99.99
2023-09-15T05:25:27.303Z,99.99
2023-09-15T05:27:56.348Z,99.99
2023-09-15T05:30:28.770Z,99.99
2023-09-15T05:32:58.556Z,99.65
2023-09-15T05:35:27.540Z,99.92
2023-09-15T05:37:56.441Z,99.20
2023-09-15T05:40:25.186Z,99.13
2023-09-15T05:42:55.823Z,98.60
2023-09-15T05:45:24.333Z,98.25
2023-09-15T05:47:54.477Z,97.81
2023-09-15T05:50:23.155Z,96.82
2023-09-15T05:52:53.033Z,95.37
2023-09-15T05:55:24.210Z,95.68
2023-09-15T05:57:53.145Z,95.74
2023-09-15T06:00:21.740Z,95.87
2023-09-15T06:02:50.571Z,95.12
2023-09-15T06:05:26.229Z,91.69
2023-09-15T06:07:58.733Z,91.99
2023-09-15T06:10:27.360Z,92.40
2023-09-15T06:12:56.633Z,91.98
2023-09-15T06:15:27.909Z,91.63
2023-09-15T06:17:56.842Z,88.46
2023-09-15T06:20:27.964Z,90.23
2023-09-15T06:22:56.884Z,90.95
2023-09-15T06:25:25.803Z,89.30
2023-09-15T06:28:01.843Z,89.59
2023-09-15T06:30:36.181Z,89.51
2023-09-15T06:33:05.050Z,83.37
2023-09-15T06:35:37.490Z,82.22
2023-09-15T06:38:09.072Z,83.21
2023-09-15T06:40:37.627Z,84.17
2023-09-15T06:43:08.511Z,83.09
2023-09-15T06:45:40.375Z,84.08
2023-09-15T06:48:09.295Z,84.94
2023-09-15T06:50:39.540Z,86.12
2023-09-15T06:53:08.255Z,84.75
2023-09-15T06:55:36.801Z,83.29
2023-09-15T06:58:08.272Z,82.31
2023-09-15T07:00:40.916Z,82.58
2023-09-15T07:03:09.528Z,79.28
2023-09-15T07:05:42.724Z,79.10
2023-09-15T07:08:11.338Z,80.71
2023-09-15T07:10:42.343Z,80.54
2023-09-15T07:13:11.474Z,80.40
2023-09-15T07:15:54.976Z,80.51
2023-09-15T07:18:23.285Z,79.44
2023-09-15T07:20:52.904Z,78.15
2023-09-15T07:23:28.847Z,77.58
2023-09-15T07:25:57.490Z,76.23
2023-09-15T07:28:26.353Z,75.30
2023-09-15T07:31:03.483Z,76.24
2023-09-15T07:33:34.518Z,74.81
2023-09-15T07:36:13.381Z,73.99
2023-09-15T07:38:42.262Z,73.22
2023-09-15T07:41:11.976Z,73.42
2023-09-15T07:43:40.772Z,73.68
2023-09-15T07:46:14.053Z,73.98
2023-09-15T07:48:44.558Z,73.51
2023-09-15T07:51:15.223Z,73.84
2023-09-15T07:53:45.241Z,72.91
2023-09-15T07:56:14.547Z,72.93
2023-09-15T07:58:46.069Z,73.05
2023-09-15T08:01:14.715Z,72.70
2023-09-15T08:03:43.745Z,72.27
2023-09-15T08:06:16.732Z,72.85
2023-09-15T08:08:47.519Z,72.31
2023-09-15T08:11:16.989Z,72.44
2023-09-15T08:13:47.722Z,71.54
2023-09-15T08:16:17.205Z,71.31
2023-09-15T08:18:48.270Z,71.45
2023-09-15T08:21:19.153Z,71.89
2023-09-15T08:23:47.615Z,71.51
2023-09-15T08:26:16.142Z,72.04
2023-09-15T08:28:46.171Z,71.47
2023-09-15T08:31:17.890Z,70.20
2023-09-15T08:33:47.505Z,71.08
2023-09-15T08:36:16.188Z,71.60
2023-09-15T08:38:46.647Z,70.65
2023-09-15T08:41:24.893Z,70.51
2023-09-15T08:43:54.266Z,69.97
2023-09-15T08:46:24.240Z,70.48
2023-09-15T08:49:01.230Z,70.67
2023-09-15T08:51:33.060Z,69.67
2023-09-15T08:54:06.238Z,69.17
2023-09-15T08:56:35.701Z,70.29
2023-09-15T08:59:06.051Z,67.83
2023-09-15T09:01:35.942Z,67.97
2023-09-15T09:04:04.915Z,67.90
2023-09-15T09:06:36.224Z,68.36
2023-09-15T09:09:06.805Z,68.10
2023-09-15T09:11:35.339Z,67.16
2023-09-15T09:14:06.748Z,68.15
2023-09-15T09:16:35.512Z,67.87
2023-09-15T09:19:07.441Z,66.52
2023-09-15T09:21:36.478Z,65.59
2023-09-15T09:24:07.446Z,66.39
2023-09-15T09:26:36.193Z,66.50
2023-09-15T09:29:04.956Z,66.72
2023-09-15T09:31:33.650Z,66.61
2023-09-15T09:34:02.329Z,66.03
2023-09-15T09:36:30.771Z,65.26
2023-09-15T09:39:00.758Z,63.42
2023-09-15T09:41:31.384Z,62.34
2023-09-15T09:44:05.600Z,62.30
2023-09-15T09:46:34.301Z,61.81
2023-09-15T09:49:03.425Z,61.15
2023-09-15T09:51:32.356Z,61.23
2023-09-15T09:54:00.725Z,60.48
2023-09-15T09:56:34.222Z,55.52
2023-09-15T09:59:11.835Z,56.43
2023-09-15T10:01:41.900Z,56.34
2023-09-15T10:04:10.687Z,56.86
2023-09-15T10:06:39.748Z,56.26
2023-09-15T10:09:08.651Z,56.69
2023-09-15T10:11:39.006Z,56.24
2023-09-15T10:14:08.026Z,55.50
2023-09-15T10:16:39.120Z,56.41
2023-09-15T10:19:09.130Z,54.10
2023-09-15T10:21:38.830Z,55.07
2023-09-15T10:24:10.385Z,55.24
2023-09-15T10:26:43.022Z,54.34
2023-09-15T10:29:17.295Z,53.57
2023-09-15T10:31:47.152Z,53.06
2023-09-15T10:34:17.590Z,52.23
2023-09-15T10:36:47.341Z,53.52
2023-09-15T10:39:16.215Z,54.80
2023-09-15T10:41:46.530Z,52.75
2023-09-15T10:44:15.494Z,52.23
2023-09-15T10:46:45.274Z,53.00
2023-09-15T10:49:18.018Z,52.37
2023-09-15T10:51:57.354Z,51.52
2023-09-15T10:54:32.855Z,52.33
2023-09-15T10:57:03.099Z,52.28
2023-09-15T10:59:31.754Z,51.97
2023-09-15T11:02:00.316Z,52.51
2023-09-15T11:04:30.461Z,52.08
2023-09-15T11:06:59.449Z,51.12
2023-09-15T11:09:28.492Z,52.05
2023-09-15T11:11:57.174Z,50.95
2023-09-15T11:14:27.479Z,50.91
2023-09-15T11:16:57.918Z,51.81
2023-09-15T11:19:31.845Z,51.20
2023-09-15T11:22:04.846Z,51.20
2023-09-15T11:24:35.368Z,51.42
2023-09-15T11:27:04.275Z,52.81
2023-09-15T11:29:34.340Z,51.91
2023-09-15T11:32:04.403Z,52.64
2023-09-15T11:34:34.614Z,51.53
2023-09-15T11:37:03.599Z,51.17
2023-09-15T11:39:32.576Z,53.82
2023-09-15T11:42:03.353Z,54.10
2023-09-15T11:44:33.367Z,54.77
2023-09-15T11:47:03.825Z,55.10
2023-09-15T11:49:33.026Z,54.51
2023-09-15T11:52:01.607Z,54.53
2023-09-15T11:54:30.327Z,54.32
2023-09-15T11:56:59.214Z,55.77
2023-09-15T11:59:28.098Z,51.89
2023-09-15T12:02:01.155Z,53.33
2023-09-15T12:04:30.576Z,52.73
2023-09-15T12:07:00.556Z,50.66
2023-09-15T12:09:29.469Z,51.56
2023-09-15T12:11:57.938Z,53.43
2023-09-15T12:14:27.400Z,53.61
2023-09-15T12:17:00.212Z,55.75
2023-09-15T12:19:29.959Z,56.75
2023-09-15T12:22:01.052Z,56.89
2023-09-15T12:24:30.379Z,56.82
2023-09-15T12:27:00.679Z,52.27
2023-09-15T12:29:29.888Z,50.60
2023-09-15T12:32:05.738Z,51.27
2023-09-15T12:34:35.324Z,52.54
2023-09-15T12:37:09.355Z,52.33
2023-09-15T12:39:37.656Z,53.10
2023-09-15T12:42:14.832Z,52.57
2023-09-15T12:44:44.398Z,53.01
2023-09-15T12:47:17.710Z,52.37
2023-09-15T12:49:46.730Z,54.08
2023-09-15T12:52:16.273Z,54.27
2023-09-15T12:54:45.129Z,54.65
2023-09-15T12:57:15.285Z,56.21
2023-09-15T12:59:47.336Z,56.88
2023-09-15T13:02:17.413Z,56.39
2023-09-15T13:04:46.401Z,57.06
2023-09-15T13:07:15.638Z,56.02
2023-09-15T13:09:47.344Z,56.52
2023-09-15T13:12:15.953Z,56.58
2023-09-15T13:14:44.764Z,57.38
2023-09-15T13:17:13.329Z,56.32
2023-09-15T13:19:43.608Z,57.26
2023-09-15T13:22:12.368Z,56.05
2023-09-15T13:24:40.939Z,55.65
2023-09-15T13:27:09.633Z,55.53
2023-09-15T13:29:39.336Z,54.80
2023-09-15T13:32:08.226Z,55.74
2023-09-15T13:34:37.473Z,58.01
2023-09-15T13:37:08.041Z,58.20
2023-09-15T13:39:39.708Z,59.13
2023-09-15T13:42:08.534Z,58.31
2023-09-15T13:44:37.715Z,59.38
2023-09-15T13:47:06.343Z,58.76
2023-09-15T13:49:35.842Z,59.42
2023-09-15T13:52:05.027Z,60.09
2023-09-15T13:54:35.731Z,60.36
2023-09-15T13:57:10.991Z,60.28
2023-09-15T13:59:49.768Z,60.96
2023-09-15T14:02:18.220Z,60.77
2023-09-15T14:04:52.193Z,61.26
2023-09-15T14:07:21.702Z,61.14
2023-09-15T14:09:52.421Z,60.37
2023-09-15T14:12:21.708Z,60.47
2023-09-15T14:14:50.064Z,60.31
2023-09-15T14:17:25.677Z,62.22
2023-09-15T14:19:54.575Z,60.44
2023-09-15T14:22:23.584Z,59.50
2023-09-15T14:24:54.084Z,59.55
2023-09-15T14:27:22.333Z,59.15
2023-09-15T14:29:51.537Z,57.91
2023-09-15T14:32:20.818Z,58.35
2023-09-15T14:34:51.288Z,57.71
2023-09-15T14:37:20.663Z,56.94
2023-09-15T14:39:51.354Z,58.33
2023-09-15T14:42:23.710Z,56.32
2023-09-15T14:44:53.460Z,55.72
2023-09-15T14:47:24.974Z,56.22
2023-09-15T14:49:53.636Z,56.33
2023-09-15T14:52:26.669Z,56.09
2023-09-15T14:54:57.455Z,56.47
2023-09-15T14:57:27.754Z,56.01
2023-09-15T14:59:59.876Z,55.89
2023-09-15T15:02:33.350Z,56.03
2023-09-15T15:05:02.219Z,54.75
2023-09-15T15:07:30.519Z,54.96
2023-09-15T15:09:59.134Z,55.28
2023-09-15T15:12:29.659Z,55.80
2023-09-15T15:14:57.989Z,57.18
2023-09-15T15:17:27.148Z,58.89
2023-09-15T15:19:56.930Z,59.49
2023-09-15T15:22:26.722Z,60.31
2023-09-15T15:24:55.651Z,60.45
2023-09-15T15:27:24.358Z,59.93
2023-09-15T15:29:58.940Z,59.95
2023-09-15T15:32:28.465Z,61.09
2023-09-15T15:34:58.148Z,61.66
2023-09-15T15:37:27.222Z,62.08
2023-09-15T15:39:58.461Z,62.60
2023-09-15T15:42:27.004Z,62.72
2023-09-15T15:44:57.931Z,63.09
2023-09-15T15:47:27.027Z,62.48
2023-09-15T15:49:58.251Z,63.29
2023-09-15T15:52:28.108Z,63.63
2023-09-15T15:54:56.495Z,64.23
2023-09-15T15:57:25.710Z,64.41
2023-09-15T15:59:55.794Z,65.15
2023-09-15T16:02:29.973Z,65.74
2023-09-15T16:04:59.883Z,65.96
2023-09-15T16:07:28.651Z,65.92
2023-09-15T16:09:58.662Z,66.27
2023-09-15T16:12:28.752Z,66.29
2023-09-15T16:14:59.696Z,66.57
2023-09-15T16:17:37.910Z,66.08
2023-09-15T16:20:10.159Z,66.38
2023-09-15T16:22:39.421Z,67.23
2023-09-15T16:25:12.426Z,67.12
2023-09-15T16:27:41.604Z,66.62
2023-09-15T16:30:10.755Z,67.02
2023-09-15T16:32:41.309Z,67.32
2023-09-15T16:35:14.517Z,66.48
2023-09-15T16:37:43.756Z,67.59
2023-09-15T16:40:13.661Z,67.18
2023-09-15T16:42:42.279Z,67.99
2023-09-15T16:45:11.553Z,68.18
2023-09-15T16:47:41.924Z,68.31
2023-09-15T16:50:12.556Z,68.51
2023-09-15T16:52:43.854Z,68.29
2023-09-15T16:55:14.559Z,69.70
2023-09-15T16:57:44.592Z,69.50
2023-09-15T17:00:17.101Z,69.45
2023-09-15T17:02:48.421Z,69.85
2023-09-15T17:05:18.274Z,70.88
2023-09-15T17:07:47.589Z,71.16
2023-09-15T17:10:16.483Z,70.97
2023-09-15T17:12:47.701Z,71.16
2023-09-15T17:15:16.300Z,72.12
2023-09-15T17:17:46.345Z,73.38
2023-09-15T17:20:17.046Z,74.27
2023-09-15T17:22:45.916Z,73.82
2023-09-15T17:25:15.175Z,74.47
2023-09-15T17:27:46.644Z,74.06
2023-09-15T17:30:16.210Z,74.28
2023-09-15T17:32:46.127Z,74.22
2023-09-15T17:35:18.196Z,74.63
2023-09-15T17:37:48.779Z,75.02
2023-09-15T17:40:20.396Z,75.50
2023-09-15T17:42:49.829Z,75.55
2023-09-15T17:45:21.773Z,75.99
2023-09-15T17:47:50.727Z,76.17
2023-09-15T17:50:22.054Z,75.82
2023-09-15T17:52:55.604Z,76.23
2023-09-15T17:55:24.303Z,76.45
2023-09-15T17:57:53.243Z,76.35
2023-09-15T18:00:22.886Z,76.70
2023-09-15T18:02:51.895Z,77.35
2023-09-15T18:05:22.513Z,77.68
2023-09-15T18:07:50.901Z,78.20
2023-09-15T18:10:21.113Z,76.68
2023-09-15T18:12:51.829Z,76.73
2023-09-15T18:15:20.789Z,76.92
2023-09-15T18:17:53.125Z,77.16
2023-09-15T18:20:25.618Z,77.49
2023-09-15T18:22:54.102Z,77.19
2023-09-15T18:25:22.994Z,78.83
2023-09-15T18:27:51.485Z,80.90
2023-09-15T18:30:21.452Z,80.21
2023-09-15T18:32:52.859Z,80.44
2023-09-15T18:35:23.489Z,80.08
2023-09-15T18:37:52.138Z,79.91
2023-09-15T18:40:20.331Z,80.85
2023-09-15T18:42:49.523Z,81.65
2023-09-15T18:45:17.875Z,81.91
2023-09-15T18:47:47.250Z,81.56
2023-09-15T18:50:17.293Z,81.61
2023-09-15T18:52:48.055Z,80.79
2023-09-15T18:55:16.733Z,80.79
2023-09-15T18:57:45.338Z,80.40
2023-09-15T19:00:16.126Z,81.08
2023-09-15T19:02:46.700Z,82.39
2023-09-15T19:05:16.064Z,82.45
2023-09-15T19:07:44.421Z,83.98
2023-09-15T19:10:15.542Z,83.19
2023-09-15T19:12:44.564Z,82.73
2023-09-15T19:15:13.668Z,82.40
2023-09-15T19:17:42.648Z,82.82
2023-09-15T19:20:15.161Z,83.03
2023-09-15T19:22:43.709Z,82.36
2023-09-15T19:25:15.363Z,82.25
2023-09-15T19:27:45.470Z,82.27
2023-09-15T19:30:16.282Z,82.32
2023-09-15T19:32:45.345Z,82.49
2023-09-15T19:35:15.820Z,82.72
2023-09-15T19:37:45.935Z,82.53
2023-09-15T19:40:15.708Z,83.03
2023-09-15T19:42:49.039Z,82.62
2023-09-15T19:45:17.798Z,82.43
2023-09-15T19:47:47.809Z,82.86
2023-09-15T19:50:17.559Z,82.95
2023-09-15T19:52:46.013Z,83.15
2023-09-15T19:55:14.581Z,83.02
2023-09-15T19:57:54.393Z,82.51
2023-09-15T20:00:24.302Z,82.47
2023-09-15T20:02:54.250Z,82.33
2023-09-15T20:05:26.354Z,81.57
2023-09-15T20:07:55.542Z,81.19
2023-09-15T20:10:24.974Z,81.47
2023-09-15T20:12:55.439Z,80.56
2023-09-15T20:15:25.550Z,80.66
2023-09-15T20:17:59.253Z,80.42
2023-09-15T20:20:28.435Z,81.49
2023-09-15T20:22:58.834Z,79.91
2023-09-15T20:25:30.145Z,79.09
2023-09-15T20:28:02.355Z,77.13
2023-09-15T20:30:32.626Z,77.29
2023-09-15T20:33:01.042Z,76.59
2023-09-15T20:35:32.509Z,76.38
2023-09-15T20:38:00.928Z,76.11
2023-09-15T20:40:29.491Z,75.15
2023-09-15T20:42:58.534Z,74.88
2023-09-15T20:45:32.159Z,75.01
2023-09-15T20:48:01.641Z,75.30
2023-09-15T20:50:31.331Z,75.30
2023-09-15T20:52:59.888Z,75.35
2023-09-15T20:55:33.630Z,75.41
2023-09-15T20:58:04.536Z,74.90
2023-09-15T21:00:38.858Z,74.51
2023-09-15T21:03:07.781Z,75.34
2023-09-15T21:05:36.584Z,75.03
2023-09-15T21:08:05.468Z,75.32
2023-09-15T21:10:33.903Z,75.10
2023-09-15T21:13:03.315Z,75.59
2023-09-15T21:15:33.128Z,75.39
2023-09-15T21:18:04.055Z,75.23
2023-09-15T21:20:33.380Z,75.95
2023-09-15T21:23:02.158Z,74.63
2023-09-15T21:25:35.479Z,76.01
2023-09-15T21:28:05.657Z,75.62
2023-09-15T21:30:34.300Z,75.43
2023-09-15T21:33:07.873Z,76.06
2023-09-15T21:35:36.426Z,75.71
2023-09-15T21:38:05.396Z,75.47
2023-09-15T21:40:34.110Z,76.42
2023-09-15T21:43:03.906Z,75.32
2023-09-15T21:45:33.686Z,74.95
2023-09-15T21:48:03.980Z,75.46
2023-09-15T21:50:34.873Z,76.08
2023-09-15T21:53:03.531Z,76.41
2023-09-15T21:55:32.279Z,77.28
2023-09-15T21:58:00.644Z,76.96
2023-09-15T22:00:33.516Z,78.06
2023-09-15T22:03:02.667Z,77.62
2023-09-15T22:05:31.392Z,77.69
2023-09-15T22:08:04.131Z,77.40
2023-09-15T22:10:33.211Z,77.79
2023-09-15T22:13:02.328Z,77.74
2023-09-15T22:15:31.264Z,78.67
2023-09-15T22:18:01.231Z,78.37
2023-09-15T22:20:29.930Z,78.16
2023-09-15T22:22:58.590Z,78.66
2023-09-15T22:25:31.581Z,77.89
2023-09-15T22:28:00.991Z,78.80
2023-09-15T22:30:30.528Z,79.39
2023-09-15T22:33:00.538Z,79.51
2023-09-15T22:35:29.339Z,79.40
2023-09-15T22:37:58.739Z,80.18
2023-09-15T22:40:31.572Z,80.24
2023-09-15T22:43:00.027Z,80.00
2023-09-15T22:45:30.259Z,79.97
2023-09-15T22:48:00.560Z,79.67
2023-09-15T22:50:29.127Z,79.57
2023-09-15T22:52:57.826Z,79.82
2023-09-15T22:55:28.331Z,80.00
2023-09-15T22:57:58.557Z,80.82
2023-09-15T23:00:26.953Z,80.97
2023-09-15T23:02:55.609Z,80.17
2023-09-15T23:05:24.330Z,80.33
2023-09-15T23:07:52.609Z,79.76
2023-09-15T23:10:22.932Z,79.77
2023-09-15T23:12:51.485Z,80.01
2023-09-15T23:15:22.090Z,80.57
2023-09-15T23:17:50.963Z,81.43
2023-09-15T23:20:19.891Z,81.50
2023-09-15T23:22:48.357Z,82.10
2023-09-15T23:25:16.743Z,82.38
2023-09-15T23:27:49.768Z,81.99
2023-09-15T23:30:18.929Z,82.61
2023-09-15T23:32:49.637Z,81.95
2023-09-15T23:35:18.188Z,81.95
2023-09-15T23:37:47.954Z,82.98
2023-09-15T23:40:16.451Z,84.15
2023-09-15T23:42:44.980Z,84.24
2023-09-15T23:45:14.680Z,83.94
2023-09-15T23:47:43.193Z,84.61
2023-09-15T23:50:14.155Z,84.72
2023-09-15T23:52:42.677Z,84.49
2023-09-15T23:55:11.836Z,84.60
2023-09-15T23:57:41.338Z,83.57
